sensor_id;sensor_type;location;lat;lon;timestamp;temperature;humidity
15543;DHT22;7873;52.230;12.856;2023-12-07T00:01:32;25.70;33.60
15543;DHT22;7873;52.230;12.856;2023-12-07T00:03:59;25.60;33.60
15543;DHT22;7873;52.230;12.856;2023-12-07T00:06:27;25.60;33.70
15543;DHT22;7873;52.230;12.856;2023-12-07T00:08:53;25.50;33.80
15543;DHT22;7873;52.230;12.856;2023-12-07T00:11:21;25.50;33.90
15543;DHT22;7873;52.230;12.856;2023-12-07T00:13:48;25.50;33.90
15543;DHT22;7873;52.230;12.856;2023-12-07T00:16:14;25.40;34.00
15543;DHT22;7873;52.230;12.856;2023-12-07T00:18:41;25.30;34.00
15543;DHT22;7873;52.230;12.856;2023-12-07T00:21:07;25.20;34.20
15543;DHT22;7873;52.230;12.856;2023-12-07T00:23:35;25.20;34.30
15543;DHT22;7873;52.230;12.856;2023-12-07T00:26:03;25.20;34.40
15543;DHT22;7873;52.230;12.856;2023-12-07T00:28:29;25.20;34.40
15543;DHT22;7873;52.230;12.856;2023-12-07T00:30:56;25.10;34.40
15543;DHT22;7873;52.230;12.856;2023-12-07T00:33:22;25.10;34.50
15543;DHT22;7873;52.230;12.856;2023-12-07T00:35:49;25.20;34.40
15543;DHT22;7873;52.230;12.856;2023-12-07T00:38:16;25.20;34.40
15543;DHT22;7873;52.230;12.856;2023-12-07T00:40:44;25.20;34.40
15543;DHT22;7873;52.230;12.856;2023-12-07T00:43:10;25.20;34.30
15543;DHT22;7873;52.230;12.856;2023-12-07T00:45:37;25.20;34.30
15543;DHT22;7873;52.230;12.856;2023-12-07T00:48:04;25.20;34.30
15543;DHT22;7873;52.230;12.856;2023-12-07T00:50:31;25.20;34.30
15543;DHT22;7873;52.230;12.856;2023-12-07T00:52:57;25.10;34.40
15543;DHT22;7873;52.230;12.856;2023-12-07T00:55:24;25.10;34.40
15543;DHT22;7873;52.230;12.856;2023-12-07T00:57:51;25.00;34.50
15543;DHT22;7873;52.230;12.856;2023-12-07T01:00:18;25.00;34.70
15543;DHT22;7873;52.230;12.856;2023-12-07T01:02:45;24.90;35.00
15543;DHT22;7873;52.230;12.856;2023-12-07T01:05:11;24.90;35.00
15543;DHT22;7873;52.230;12.856;2023-12-07T01:07:37;24.80;35.00
15543;DHT22;7873;52.230;12.856;2023-12-07T01:10:04;24.70;35.10
15543;DHT22;7873;52.230;12.856;2023-12-07T01:12:32;24.70;35.20
15543;DHT22;7873;52.230;12.856;2023-12-07T01:14:59;24.60;35.20
15543;DHT22;7873;52.230;12.856;2023-12-07T01:17:26;24.60;35.40
15543;DHT22;7873;52.230;12.856;2023-12-07T01:19:52;24.60;35.40
15543;DHT22;7873;52.230;12.856;2023-12-07T01:22:19;24.60;35.40
15543;DHT22;7873;52.230;12.856;2023-12-07T01:24:46;24.60;35.40
15543;DHT22;7873;52.230;12.856;2023-12-07T01:27:13;24.50;35.30
15543;DHT22;7873;52.230;12.856;2023-12-07T01:29:39;24.50;35.40
15543;DHT22;7873;52.230;12.856;2023-12-07T01:32:07;24.50;35.40
15543;DHT22;7873;52.230;12.856;2023-12-07T01:34:34;24.40;35.50
15543;DHT22;7873;52.230;12.856;2023-12-07T01:37:00;24.40;35.70
15543;DHT22;7873;52.230;12.856;2023-12-07T01:39:27;24.40;35.70
15543;DHT22;7873;52.230;12.856;2023-12-07T01:41:53;24.40;35.70
15543;DHT22;7873;52.230;12.856;2023-12-07T01:44:20;24.30;35.70
15543;DHT22;7873;52.230;12.856;2023-12-07T01:46:46;24.30;35.80
15543;DHT22;7873;52.230;12.856;2023-12-07T01:49:14;24.30;35.70
15543;DHT22;7873;52.230;12.856;2023-12-07T01:51:41;24.30;35.70
15543;DHT22;7873;52.230;12.856;2023-12-07T01:54:07;24.30;35.70
15543;DHT22;7873;52.230;12.856;2023-12-07T01:56:34;24.30;35.70
15543;DHT22;7873;52.230;12.856;2023-12-07T01:59:00;24.30;35.70
15543;DHT22;7873;52.230;12.856;2023-12-07T02:01:27;24.30;35.80
15543;DHT22;7873;52.230;12.856;2023-12-07T02:03:54;24.30;35.80
15543;DHT22;7873;52.230;12.856;2023-12-07T02:06:22;24.20;35.80
15543;DHT22;7873;52.230;12.856;2023-12-07T02:08:48;24.30;35.90
15543;DHT22;7873;52.230;12.856;2023-12-07T02:11:15;24.30;35.80
15543;DHT22;7873;52.230;12.856;2023-12-07T02:13:41;24.30;35.80
15543;DHT22;7873;52.230;12.856;2023-12-07T02:16:10;24.20;35.80
15543;DHT22;7873;52.230;12.856;2023-12-07T02:18:43;24.20;35.80
15543;DHT22;7873;52.230;12.856;2023-12-07T02:21:18;24.30;35.90
15543;DHT22;7873;52.230;12.856;2023-12-07T02:23:51;24.20;35.80
15543;DHT22;7873;52.230;12.856;2023-12-07T02:26:18;24.20;35.90
15543;DHT22;7873;52.230;12.856;2023-12-07T02:28:47;24.10;36.00
15543;DHT22;7873;52.230;12.856;2023-12-07T02:31:14;24.10;36.10
15543;DHT22;7873;52.230;12.856;2023-12-07T02:33:40;24.10;36.10
15543;DHT22;7873;52.230;12.856;2023-12-07T02:36:07;24.00;36.10
15543;DHT22;7873;52.230;12.856;2023-12-07T02:38:34;24.00;36.90
15543;DHT22;7873;52.230;12.856;2023-12-07T02:41:02;24.00;36.20
15543;DHT22;7873;52.230;12.856;2023-12-07T02:43:30;24.00;36.10
15543;DHT22;7873;52.230;12.856;2023-12-07T02:45:58;24.00;36.10
15543;DHT22;7873;52.230;12.856;2023-12-07T02:48:24;24.00;36.00
15543;DHT22;7873;52.230;12.856;2023-12-07T02:50:51;24.00;36.00
15543;DHT22;7873;52.230;12.856;2023-12-07T02:53:18;24.00;36.10
15543;DHT22;7873;52.230;12.856;2023-12-07T02:55:44;24.00;36.10
15543;DHT22;7873;52.230;12.856;2023-12-07T02:58:11;23.90;36.80
15543;DHT22;7873;52.230;12.856;2023-12-07T03:00:38;23.90;36.10
15543;DHT22;7873;52.230;12.856;2023-12-07T03:03:06;23.90;36.00
15543;DHT22;7873;52.230;12.856;2023-12-07T03:05:33;23.90;36.10
15543;DHT22;7873;52.230;12.856;2023-12-07T03:07:59;23.90;36.10
15543;DHT22;7873;52.230;12.856;2023-12-07T03:10:26;23.80;36.20
15543;DHT22;7873;52.230;12.856;2023-12-07T03:12:52;23.80;36.20
15543;DHT22;7873;52.230;12.856;2023-12-07T03:15:19;23.80;36.30
15543;DHT22;7873;52.230;12.856;2023-12-07T03:17:45;23.80;36.30
15543;DHT22;7873;52.230;12.856;2023-12-07T03:20:13;23.80;36.40
15543;DHT22;7873;52.230;12.856;2023-12-07T03:22:40;23.80;36.40
15543;DHT22;7873;52.230;12.856;2023-12-07T03:25:06;23.70;36.40
15543;DHT22;7873;52.230;12.856;2023-12-07T03:27:33;23.70;36.50
15543;DHT22;7873;52.230;12.856;2023-12-07T03:29:59;23.70;36.50
15543;DHT22;7873;52.230;12.856;2023-12-07T03:32:26;23.70;36.40
15543;DHT22;7873;52.230;12.856;2023-12-07T03:34:52;23.70;36.50
15543;DHT22;7873;52.230;12.856;2023-12-07T03:37:20;23.70;36.50
15543;DHT22;7873;52.230;12.856;2023-12-07T03:39:47;23.60;36.50
15543;DHT22;7873;52.230;12.856;2023-12-07T03:42:13;23.60;36.50
15543;DHT22;7873;52.230;12.856;2023-12-07T03:44:39;23.60;36.60
15543;DHT22;7873;52.230;12.856;2023-12-07T03:47:06;23.60;36.50
15543;DHT22;7873;52.230;12.856;2023-12-07T03:49:32;23.60;36.50
15543;DHT22;7873;52.230;12.856;2023-12-07T03:51:59;23.60;36.50
15543;DHT22;7873;52.230;12.856;2023-12-07T03:54:27;23.60;36.50
15543;DHT22;7873;52.230;12.856;2023-12-07T03:56:53;23.60;36.50
15543;DHT22;7873;52.230;12.856;2023-12-07T03:59:20;23.60;36.40
15543;DHT22;7873;52.230;12.856;2023-12-07T04:01:46;23.80;36.20
15543;DHT22;7873;52.230;12.856;2023-12-07T04:04:13;23.90;36.00
15543;DHT22;7873;52.230;12.856;2023-12-07T04:06:40;23.90;35.80
15543;DHT22;7873;52.230;12.856;2023-12-07T04:09:06;24.00;35.70
15543;DHT22;7873;52.230;12.856;2023-12-07T04:11:34;23.90;35.60
15543;DHT22;7873;52.230;12.856;2023-12-07T04:14:01;23.90;35.70
15543;DHT22;7873;52.230;12.856;2023-12-07T04:16:27;23.90;35.70
15543;DHT22;7873;52.230;12.856;2023-12-07T04:18:54;23.90;35.70
15543;DHT22;7873;52.230;12.856;2023-12-07T04:21:20;23.90;35.70
15543;DHT22;7873;52.230;12.856;2023-12-07T04:23:47;23.90;35.70
15543;DHT22;7873;52.230;12.856;2023-12-07T04:26:14;23.90;35.70
15543;DHT22;7873;52.230;12.856;2023-12-07T04:28:42;23.90;35.60
15543;DHT22;7873;52.230;12.856;2023-12-07T04:31:08;23.90;35.70
15543;DHT22;7873;52.230;12.856;2023-12-07T04:33:35;23.90;35.70
15543;DHT22;7873;52.230;12.856;2023-12-07T04:36:01;23.90;36.00
15543;DHT22;7873;52.230;12.856;2023-12-07T04:38:29;23.70;35.80
15543;DHT22;7873;52.230;12.856;2023-12-07T04:40:57;23.60;35.40
15543;DHT22;7873;52.230;12.856;2023-12-07T04:43:24;23.70;35.30
15543;DHT22;7873;52.230;12.856;2023-12-07T04:45:51;23.60;35.70
15543;DHT22;7873;52.230;12.856;2023-12-07T04:48:18;23.60;36.10
15543;DHT22;7873;52.230;12.856;2023-12-07T04:50:44;23.60;36.10
15543;DHT22;7873;52.230;12.856;2023-12-07T04:53:11;23.60;35.60
15543;DHT22;7873;52.230;12.856;2023-12-07T04:55:37;23.50;36.10
15543;DHT22;7873;52.230;12.856;2023-12-07T04:58:04;23.50;36.20
15543;DHT22;7873;52.230;12.856;2023-12-07T05:00:30;23.50;36.40
15543;DHT22;7873;52.230;12.856;2023-12-07T05:02:58;23.40;36.40
15543;DHT22;7873;52.230;12.856;2023-12-07T05:05:24;23.40;36.40
15543;DHT22;7873;52.230;12.856;2023-12-07T05:07:51;23.30;36.50
15543;DHT22;7873;52.230;12.856;2023-12-07T05:10:18;23.30;36.60
15543;DHT22;7873;52.230;12.856;2023-12-07T05:12:44;23.30;36.60
15543;DHT22;7873;52.230;12.856;2023-12-07T05:15:11;23.30;36.70
15543;DHT22;7873;52.230;12.856;2023-12-07T05:17:38;23.30;36.70
15543;DHT22;7873;52.230;12.856;2023-12-07T05:20:06;23.30;36.70
15543;DHT22;7873;52.230;12.856;2023-12-07T05:22:33;23.20;36.60
15543;DHT22;7873;52.230;12.856;2023-12-07T05:25:00;23.20;36.60
15543;DHT22;7873;52.230;12.856;2023-12-07T05:27:26;23.20;36.70
15543;DHT22;7873;52.230;12.856;2023-12-07T05:29:53;23.20;36.70
15543;DHT22;7873;52.230;12.856;2023-12-07T05:32:20;23.20;36.60
15543;DHT22;7873;52.230;12.856;2023-12-07T05:34:46;23.20;36.70
15543;DHT22;7873;52.230;12.856;2023-12-07T05:37:14;23.20;37.50
15543;DHT22;7873;52.230;12.856;2023-12-07T05:39:41;23.20;36.70
15543;DHT22;7873;52.230;12.856;2023-12-07T05:42:07;23.20;36.70
15543;DHT22;7873;52.230;12.856;2023-12-07T05:44:34;23.20;36.60
15543;DHT22;7873;52.230;12.856;2023-12-07T05:47:00;23.20;36.70
15543;DHT22;7873;52.230;12.856;2023-12-07T05:49:26;23.10;36.80
15543;DHT22;7873;52.230;12.856;2023-12-07T05:51:53;23.10;36.70
15543;DHT22;7873;52.230;12.856;2023-12-07T05:54:21;23.10;36.70
15543;DHT22;7873;52.230;12.856;2023-12-07T05:56:48;23.10;36.70
15543;DHT22;7873;52.230;12.856;2023-12-07T05:59:14;23.10;36.80
15543;DHT22;7873;52.230;12.856;2023-12-07T06:01:41;23.10;36.80
15543;DHT22;7873;52.230;12.856;2023-12-07T06:04:08;23.10;36.80
15543;DHT22;7873;52.230;12.856;2023-12-07T06:06:35;23.00;36.80
15543;DHT22;7873;52.230;12.856;2023-12-07T06:09:02;23.00;36.80
15543;DHT22;7873;52.230;12.856;2023-12-07T06:11:31;23.00;36.80
15543;DHT22;7873;52.230;12.856;2023-12-07T06:13:58;23.00;36.80
15543;DHT22;7873;52.230;12.856;2023-12-07T06:16:25;23.00;36.80
15543;DHT22;7873;52.230;12.856;2023-12-07T06:18:51;23.00;36.70
15543;DHT22;7873;52.230;12.856;2023-12-07T06:21:18;23.00;36.80
15543;DHT22;7873;52.230;12.856;2023-12-07T06:23:45;23.00;36.80
15543;DHT22;7873;52.230;12.856;2023-12-07T06:26:12;23.00;36.80
15543;DHT22;7873;52.230;12.856;2023-12-07T06:28:40;23.10;36.60
15543;DHT22;7873;52.230;12.856;2023-12-07T06:31:08;23.10;36.50
15543;DHT22;7873;52.230;12.856;2023-12-07T06:33:34;23.20;36.10
15543;DHT22;7873;52.230;12.856;2023-12-07T06:36:01;23.10;35.90
15543;DHT22;7873;52.230;12.856;2023-12-07T06:38:28;23.10;35.20
15543;DHT22;7873;52.230;12.856;2023-12-07T06:40:55;23.10;35.70
15543;DHT22;7873;52.230;12.856;2023-12-07T06:43:21;23.10;35.60
15543;DHT22;7873;52.230;12.856;2023-12-07T06:45:49;23.10;35.70
15543;DHT22;7873;52.230;12.856;2023-12-07T06:48:16;23.20;35.20
15543;DHT22;7873;52.230;12.856;2023-12-07T06:50:42;23.20;35.70
15543;DHT22;7873;52.230;12.856;2023-12-07T06:53:09;23.20;34.60
15543;DHT22;7873;52.230;12.856;2023-12-07T06:55:35;23.20;34.70
15543;DHT22;7873;52.230;12.856;2023-12-07T06:58:02;23.20;35.50
15543;DHT22;7873;52.230;12.856;2023-12-07T07:00:28;23.10;33.00
15543;DHT22;7873;52.230;12.856;2023-12-07T07:02:56;22.90;32.60
15543;DHT22;7873;52.230;12.856;2023-12-07T07:05:23;22.70;32.50
15543;DHT22;7873;52.230;12.856;2023-12-07T07:07:49;22.60;32.60
15543;DHT22;7873;52.230;12.856;2023-12-07T07:10:16;22.50;32.60
15543;DHT22;7873;52.230;12.856;2023-12-07T07:12:43;22.40;33.00
15543;DHT22;7873;52.230;12.856;2023-12-07T07:15:09;22.40;32.90
15543;DHT22;7873;52.230;12.856;2023-12-07T07:17:36;22.40;33.50
15543;DHT22;7873;52.230;12.856;2023-12-07T07:20:04;22.40;33.10
15543;DHT22;7873;52.230;12.856;2023-12-07T07:22:31;22.30;32.70
15543;DHT22;7873;52.230;12.856;2023-12-07T07:24:59;22.30;33.20
15543;DHT22;7873;52.230;12.856;2023-12-07T07:27:26;22.30;33.30
15543;DHT22;7873;52.230;12.856;2023-12-07T07:29:52;22.30;33.50
15543;DHT22;7873;52.230;12.856;2023-12-07T07:32:19;22.30;33.60
15543;DHT22;7873;52.230;12.856;2023-12-07T07:34:45;22.30;33.80
15543;DHT22;7873;52.230;12.856;2023-12-07T07:37:13;22.30;33.90
15543;DHT22;7873;52.230;12.856;2023-12-07T07:39:39;22.30;34.00
15543;DHT22;7873;52.230;12.856;2023-12-07T07:42:06;22.30;34.10
15543;DHT22;7873;52.230;12.856;2023-12-07T07:44:32;22.30;34.20
15543;DHT22;7873;52.230;12.856;2023-12-07T07:46:59;22.30;34.30
15543;DHT22;7873;52.230;12.856;2023-12-07T07:49:25;22.30;34.50
15543;DHT22;7873;52.230;12.856;2023-12-07T07:51:52;22.30;34.50
15543;DHT22;7873;52.230;12.856;2023-12-07T07:54:19;22.20;34.60
15543;DHT22;7873;52.230;12.856;2023-12-07T07:56:46;22.30;34.70
15543;DHT22;7873;52.230;12.856;2023-12-07T07:59:12;22.30;34.90
15543;DHT22;7873;52.230;12.856;2023-12-07T08:01:39;22.30;34.90
15543;DHT22;7873;52.230;12.856;2023-12-07T08:04:05;22.30;34.90
15543;DHT22;7873;52.230;12.856;2023-12-07T08:06:32;22.20;34.90
15543;DHT22;7873;52.230;12.856;2023-12-07T08:08:59;22.20;34.90
15543;DHT22;7873;52.230;12.856;2023-12-07T08:11:27;22.30;35.00
15543;DHT22;7873;52.230;12.856;2023-12-07T08:13:54;22.30;35.00
15543;DHT22;7873;52.230;12.856;2023-12-07T08:16:21;22.30;35.00
15543;DHT22;7873;52.230;12.856;2023-12-07T08:18:48;22.30;35.20
15543;DHT22;7873;52.230;12.856;2023-12-07T08:21:20;22.30;35.20
15543;DHT22;7873;52.230;12.856;2023-12-07T08:23:47;22.30;35.20
15543;DHT22;7873;52.230;12.856;2023-12-07T08:26:13;22.30;35.30
15543;DHT22;7873;52.230;12.856;2023-12-07T08:28:41;22.30;35.40
15543;DHT22;7873;52.230;12.856;2023-12-07T08:31:08;22.30;35.40
15543;DHT22;7873;52.230;12.856;2023-12-07T08:33:34;22.20;35.40
15543;DHT22;7873;52.230;12.856;2023-12-07T08:36:01;22.20;35.50
15543;DHT22;7873;52.230;12.856;2023-12-07T08:38:28;22.20;35.60
15543;DHT22;7873;52.230;12.856;2023-12-07T08:40:54;22.20;35.60
15543;DHT22;7873;52.230;12.856;2023-12-07T08:43:21;22.10;35.70
15543;DHT22;7873;52.230;12.856;2023-12-07T08:45:50;22.10;35.70
15543;DHT22;7873;52.230;12.856;2023-12-07T08:48:17;22.10;35.80
15543;DHT22;7873;52.230;12.856;2023-12-07T08:50:43;22.10;35.80
15543;DHT22;7873;52.230;12.856;2023-12-07T08:53:10;22.20;36.40
15543;DHT22;7873;52.230;12.856;2023-12-07T08:55:37;22.20;36.30
15543;DHT22;7873;52.230;12.856;2023-12-07T08:58:03;22.20;36.40
15543;DHT22;7873;52.230;12.856;2023-12-07T09:00:30;22.20;36.30
15543;DHT22;7873;52.230;12.856;2023-12-07T09:02:58;22.20;36.20
15543;DHT22;7873;52.230;12.856;2023-12-07T09:05:25;22.40;36.10
15543;DHT22;7873;52.230;12.856;2023-12-07T09:07:52;22.30;36.00
15543;DHT22;7873;52.230;12.856;2023-12-07T09:10:19;22.40;35.90
15543;DHT22;7873;52.230;12.856;2023-12-07T09:12:45;22.50;35.80
15543;DHT22;7873;52.230;12.856;2023-12-07T09:15:12;22.60;35.60
15543;DHT22;7873;52.230;12.856;2023-12-07T09:17:39;22.60;35.60
15543;DHT22;7873;52.230;12.856;2023-12-07T09:20:08;22.50;35.80
15543;DHT22;7873;52.230;12.856;2023-12-07T09:22:37;22.60;35.80
15543;DHT22;7873;52.230;12.856;2023-12-07T09:25:04;22.60;35.70
15543;DHT22;7873;52.230;12.856;2023-12-07T09:27:32;22.70;35.70
15543;DHT22;7873;52.230;12.856;2023-12-07T09:30:00;22.60;35.60
15543;DHT22;7873;52.230;12.856;2023-12-07T09:32:26;22.60;35.70
15543;DHT22;7873;52.230;12.856;2023-12-07T09:34:53;22.60;35.90
15543;DHT22;7873;52.230;12.856;2023-12-07T09:37:21;22.60;35.80
15543;DHT22;7873;52.230;12.856;2023-12-07T09:39:47;22.60;35.70
15543;DHT22;7873;52.230;12.856;2023-12-07T09:42:14;22.60;35.90
15543;DHT22;7873;52.230;12.856;2023-12-07T09:44:41;22.60;35.90
15543;DHT22;7873;52.230;12.856;2023-12-07T09:47:07;22.60;36.00
15543;DHT22;7873;52.230;12.856;2023-12-07T09:49:34;22.60;36.10
15543;DHT22;7873;52.230;12.856;2023-12-07T09:52:00;22.60;36.10
15543;DHT22;7873;52.230;12.856;2023-12-07T09:54:31;22.60;35.90
15543;DHT22;7873;52.230;12.856;2023-12-07T09:56:58;22.60;35.80
15543;DHT22;7873;52.230;12.856;2023-12-07T09:59:24;22.50;36.10
15543;DHT22;7873;52.230;12.856;2023-12-07T10:01:52;22.50;36.10
15543;DHT22;7873;52.230;12.856;2023-12-07T10:04:19;22.50;36.10
15543;DHT22;7873;52.230;12.856;2023-12-07T10:06:49;22.50;36.90
15543;DHT22;7873;52.230;12.856;2023-12-07T10:09:15;22.50;35.90
15543;DHT22;7873;52.230;12.856;2023-12-07T10:11:45;22.50;35.90
15543;DHT22;7873;52.230;12.856;2023-12-07T10:14:12;22.50;36.70
15543;DHT22;7873;52.230;12.856;2023-12-07T10:16:38;22.50;36.00
15543;DHT22;7873;52.230;12.856;2023-12-07T10:19:12;22.40;35.70
15543;DHT22;7873;52.230;12.856;2023-12-07T10:21:40;22.40;36.10
15543;DHT22;7873;52.230;12.856;2023-12-07T10:24:06;22.50;36.00
15543;DHT22;7873;52.230;12.856;2023-12-07T10:26:33;22.50;36.10
15543;DHT22;7873;52.230;12.856;2023-12-07T10:29:03;22.50;36.00
15543;DHT22;7873;52.230;12.856;2023-12-07T10:31:30;22.50;36.10
15543;DHT22;7873;52.230;12.856;2023-12-07T10:33:57;22.40;36.10
15543;DHT22;7873;52.230;12.856;2023-12-07T10:36:24;22.40;33.70
15543;DHT22;7873;52.230;12.856;2023-12-07T10:38:51;22.20;34.80
15543;DHT22;7873;52.230;12.856;2023-12-07T10:41:18;22.20;35.90
15543;DHT22;7873;52.230;12.856;2023-12-07T10:43:48;22.30;36.10
15543;DHT22;7873;52.230;12.856;2023-12-07T10:46:16;22.20;36.10
15543;DHT22;7873;52.230;12.856;2023-12-07T10:48:48;22.20;36.20
15543;DHT22;7873;52.230;12.856;2023-12-07T10:51:17;22.20;36.40
15543;DHT22;7873;52.230;12.856;2023-12-07T10:53:46;22.20;37.30
15543;DHT22;7873;52.230;12.856;2023-12-07T10:56:19;22.10;36.60
15543;DHT22;7873;52.230;12.856;2023-12-07T10:58:51;22.10;36.60
15543;DHT22;7873;52.230;12.856;2023-12-07T11:01:20;22.10;36.70
15543;DHT22;7873;52.230;12.856;2023-12-07T11:03:48;22.00;36.70
15543;DHT22;7873;52.230;12.856;2023-12-07T11:06:16;22.00;36.80
15543;DHT22;7873;52.230;12.856;2023-12-07T11:08:47;22.00;36.90
15543;DHT22;7873;52.230;12.856;2023-12-07T11:11:18;22.00;36.90
15543;DHT22;7873;52.230;12.856;2023-12-07T11:13:49;22.00;37.00
15543;DHT22;7873;52.230;12.856;2023-12-07T11:16:29;22.00;37.00
15543;DHT22;7873;52.230;12.856;2023-12-07T11:18:56;21.90;37.10
15543;DHT22;7873;52.230;12.856;2023-12-07T11:21:23;21.90;37.10
15543;DHT22;7873;52.230;12.856;2023-12-07T11:23:49;21.90;37.10
15543;DHT22;7873;52.230;12.856;2023-12-07T11:26:18;21.90;37.10
15543;DHT22;7873;52.230;12.856;2023-12-07T11:28:45;21.90;37.10
15543;DHT22;7873;52.230;12.856;2023-12-07T11:31:12;21.90;37.20
15543;DHT22;7873;52.230;12.856;2023-12-07T11:33:40;21.90;37.90
15543;DHT22;7873;52.230;12.856;2023-12-07T11:36:07;21.90;37.20
15543;DHT22;7873;52.230;12.856;2023-12-07T11:38:35;21.90;37.30
15543;DHT22;7873;52.230;12.856;2023-12-07T11:41:03;21.80;37.30
15543;DHT22;7873;52.230;12.856;2023-12-07T11:43:36;21.90;37.30
15543;DHT22;7873;52.230;12.856;2023-12-07T11:46:05;21.80;37.30
15543;DHT22;7873;52.230;12.856;2023-12-07T11:48:33;21.80;37.30
15543;DHT22;7873;52.230;12.856;2023-12-07T11:51:01;21.80;37.30
15543;DHT22;7873;52.230;12.856;2023-12-07T11:53:30;21.80;37.30
15543;DHT22;7873;52.230;12.856;2023-12-07T11:55:57;21.80;37.20
15543;DHT22;7873;52.230;12.856;2023-12-07T11:58:25;21.80;37.20
15543;DHT22;7873;52.230;12.856;2023-12-07T12:00:52;21.80;37.30
15543;DHT22;7873;52.230;12.856;2023-12-07T12:03:19;21.80;37.30
15543;DHT22;7873;52.230;12.856;2023-12-07T12:05:45;21.80;37.20
15543;DHT22;7873;52.230;12.856;2023-12-07T12:08:14;21.80;37.20
15543;DHT22;7873;52.230;12.856;2023-12-07T12:10:40;21.80;37.30
15543;DHT22;7873;52.230;12.856;2023-12-07T12:13:08;21.80;37.30
15543;DHT22;7873;52.230;12.856;2023-12-07T12:15:35;21.80;37.30
15543;DHT22;7873;52.230;12.856;2023-12-07T12:18:01;21.80;37.30
15543;DHT22;7873;52.230;12.856;2023-12-07T12:20:30;21.80;37.30
15543;DHT22;7873;52.230;12.856;2023-12-07T12:22:57;21.80;37.40
15543;DHT22;7873;52.230;12.856;2023-12-07T12:25:25;21.80;37.40
15543;DHT22;7873;52.230;12.856;2023-12-07T12:27:54;21.70;37.40
15543;DHT22;7873;52.230;12.856;2023-12-07T12:30:21;21.70;37.40
15543;DHT22;7873;52.230;12.856;2023-12-07T12:32:48;21.70;37.40
15543;DHT22;7873;52.230;12.856;2023-12-07T12:35:16;21.70;37.40
15543;DHT22;7873;52.230;12.856;2023-12-07T12:37:42;21.70;37.30
15543;DHT22;7873;52.230;12.856;2023-12-07T12:40:10;21.80;37.10
15543;DHT22;7873;52.230;12.856;2023-12-07T12:42:39;21.90;37.40
15543;DHT22;7873;52.230;12.856;2023-12-07T12:45:07;21.80;37.40
15543;DHT22;7873;52.230;12.856;2023-12-07T12:47:36;21.80;37.40
15543;DHT22;7873;52.230;12.856;2023-12-07T12:50:02;21.80;36.40
15543;DHT22;7873;52.230;12.856;2023-12-07T12:52:30;21.70;36.90
15543;DHT22;7873;52.230;12.856;2023-12-07T12:54:57;21.70;37.10
15543;DHT22;7873;52.230;12.856;2023-12-07T12:57:23;21.70;37.40
15543;DHT22;7873;52.230;12.856;2023-12-07T12:59:51;21.70;37.40
15543;DHT22;7873;52.230;12.856;2023-12-07T13:02:18;21.70;37.40
15543;DHT22;7873;52.230;12.856;2023-12-07T13:04:45;21.60;37.40
15543;DHT22;7873;52.230;12.856;2023-12-07T13:07:11;21.60;37.80
15543;DHT22;7873;52.230;12.856;2023-12-07T13:09:38;21.60;37.70
15543;DHT22;7873;52.230;12.856;2023-12-07T13:12:05;21.70;37.60
15543;DHT22;7873;52.230;12.856;2023-12-07T13:14:32;21.70;37.30
15543;DHT22;7873;52.230;12.856;2023-12-07T13:17:02;21.80;37.10
15543;DHT22;7873;52.230;12.856;2023-12-07T13:19:29;21.80;37.00
15543;DHT22;7873;52.230;12.856;2023-12-07T13:21:56;21.80;36.60
15543;DHT22;7873;52.230;12.856;2023-12-07T13:24:23;21.90;36.40
15543;DHT22;7873;52.230;12.856;2023-12-07T13:26:49;22.00;36.90
15543;DHT22;7873;52.230;12.856;2023-12-07T13:29:16;22.00;36.10
15543;DHT22;7873;52.230;12.856;2023-12-07T13:31:42;21.90;36.10
15543;DHT22;7873;52.230;12.856;2023-12-07T13:34:10;21.90;36.40
15543;DHT22;7873;52.230;12.856;2023-12-07T13:36:39;21.80;36.50
15543;DHT22;7873;52.230;12.856;2023-12-07T13:39:05;21.80;36.30
15543;DHT22;7873;52.230;12.856;2023-12-07T13:41:33;21.60;34.70
15543;DHT22;7873;52.230;12.856;2023-12-07T13:44:00;21.60;35.60
15543;DHT22;7873;52.230;12.856;2023-12-07T13:46:27;21.50;35.70
15543;DHT22;7873;52.230;12.856;2023-12-07T13:48:54;21.60;35.60
15543;DHT22;7873;52.230;12.856;2023-12-07T13:51:22;21.70;35.30
15543;DHT22;7873;52.230;12.856;2023-12-07T13:53:49;22.00;35.10
15543;DHT22;7873;52.230;12.856;2023-12-07T13:56:20;22.50;34.90
15543;DHT22;7873;52.230;12.856;2023-12-07T13:58:48;22.90;34.20
15543;DHT22;7873;52.230;12.856;2023-12-07T14:01:15;23.30;33.80
15543;DHT22;7873;52.230;12.856;2023-12-07T14:03:42;23.50;33.40
15543;DHT22;7873;52.230;12.856;2023-12-07T14:06:09;23.80;33.00
15543;DHT22;7873;52.230;12.856;2023-12-07T14:08:38;23.90;33.00
15543;DHT22;7873;52.230;12.856;2023-12-07T14:11:05;24.00;33.30
15543;DHT22;7873;52.230;12.856;2023-12-07T14:13:31;24.10;33.40
15543;DHT22;7873;52.230;12.856;2023-12-07T14:15:57;24.10;33.00
15543;DHT22;7873;52.230;12.856;2023-12-07T14:18:24;24.30;33.00
15543;DHT22;7873;52.230;12.856;2023-12-07T14:20:50;24.40;32.80
15543;DHT22;7873;52.230;12.856;2023-12-07T14:23:16;24.40;32.80
15543;DHT22;7873;52.230;12.856;2023-12-07T14:25:45;24.40;32.80
15543;DHT22;7873;52.230;12.856;2023-12-07T14:28:13;24.50;32.80
15543;DHT22;7873;52.230;12.856;2023-12-07T14:30:40;24.50;32.70
15543;DHT22;7873;52.230;12.856;2023-12-07T14:33:06;24.50;32.60
15543;DHT22;7873;52.230;12.856;2023-12-07T14:35:33;24.60;32.60
15543;DHT22;7873;52.230;12.856;2023-12-07T14:38:00;24.60;32.50
15543;DHT22;7873;52.230;12.856;2023-12-07T14:40:26;24.70;32.60
15543;DHT22;7873;52.230;12.856;2023-12-07T14:42:54;24.80;32.40
15543;DHT22;7873;52.230;12.856;2023-12-07T14:45:21;24.90;32.40
15543;DHT22;7873;52.230;12.856;2023-12-07T14:47:47;25.00;32.30
15543;DHT22;7873;52.230;12.856;2023-12-07T14:50:14;25.10;32.10
15543;DHT22;7873;52.230;12.856;2023-12-07T14:52:41;25.20;31.90
15543;DHT22;7873;52.230;12.856;2023-12-07T14:55:07;25.40;31.80
15543;DHT22;7873;52.230;12.856;2023-12-07T14:57:34;25.50;31.40
15543;DHT22;7873;52.230;12.856;2023-12-07T15:00:02;25.70;31.40
15543;DHT22;7873;52.230;12.856;2023-12-07T15:02:29;25.70;31.90
15543;DHT22;7873;52.230;12.856;2023-12-07T15:04:56;25.80;31.70
15543;DHT22;7873;52.230;12.856;2023-12-07T15:07:22;25.90;30.70
15543;DHT22;7873;52.230;12.856;2023-12-07T15:09:49;26.00;30.60
15543;DHT22;7873;52.230;12.856;2023-12-07T15:12:17;26.10;30.60
15543;DHT22;7873;52.230;12.856;2023-12-07T15:14:44;26.20;30.00
15543;DHT22;7873;52.230;12.856;2023-12-07T15:17:12;26.10;30.00
15543;DHT22;7873;52.230;12.856;2023-12-07T15:19:38;26.00;30.30
15543;DHT22;7873;52.230;12.856;2023-12-07T15:22:05;26.10;30.80
15543;DHT22;7873;52.230;12.856;2023-12-07T15:24:31;26.10;31.90
15543;DHT22;7873;52.230;12.856;2023-12-07T15:26:57;26.00;30.50
15543;DHT22;7873;52.230;12.856;2023-12-07T15:29:24;26.00;30.90